Time;durP1;ratioP1;P1;durP2;ratioP2;P2;SDS_P1;SDS_P2;PMS_P1;PMS_P2;Temp;Humidity;BMP_temperature;BMP_pressure;BME280_temperature;BME280_humidity;BME280_pressure;Samples;Min_cycle;Max_cycle;Signal;HPM_P1;HPM_P2
2022/04/13 00:00:44;;;;;;;10.83;7.23;;;13.10;99.90;;;;;;5033758;28;20050;-85
2022/04/13 00:03:09;;;;;;;11.30;7.93;;;13.00;99.90;;;;;;5060208;28;20044;-84
2022/04/13 00:05:35;;;;;;;11.27;8.10;;;12.90;99.90;;;;;;5001009;28;20633;-84
2022/04/13 00:08:06;;;;;;;9.07;7.87;;;12.90;99.90;;;;;;5018185;28;20032;-84
2022/04/13 00:10:33;;;;;;;9.83;7.53;;;12.90;99.90;;;;;;5021524;28;20052;-83
2022/04/13 00:12:58;;;;;;;11.23;8.03;;;12.80;99.90;;;;;;5019242;28;20048;-83
2022/04/13 00:15:24;;;;;;;10.27;7.97;;;12.80;99.90;;;;;;5022151;28;20056;-84
2022/04/13 00:17:50;;;;;;;11.03;8.17;;;12.70;99.90;;;;;;5034887;28;20071;-85
2022/04/13 00:20:16;;;;;;;10.80;7.60;;;12.60;99.90;;;;;;5016622;28;20086;-84
2022/04/13 00:22:41;;;;;;;8.93;7.40;;;12.60;99.90;;;;;;5019072;28;20047;-84
2022/04/13 00:25:07;;;;;;;11.57;7.93;;;12.60;99.90;;;;;;5016701;28;20051;-84
2022/04/13 00:27:33;;;;;;;9.00;7.53;;;12.50;99.90;;;;;;5024201;28;20052;-85
2022/04/13 00:29:59;;;;;;;11.87;7.37;;;12.50;99.90;;;;;;5019863;28;20178;-85
2022/04/13 00:32:25;;;;;;;9.87;7.63;;;12.50;99.90;;;;;;5002021;28;20222;-85
2022/04/13 00:34:51;;;;;;;9.93;7.67;;;12.40;99.90;;;;;;5002616;28;20044;-85
2022/04/13 00:37:17;;;;;;;10.97;6.93;;;12.40;99.90;;;;;;5019699;28;20387;-86
2022/04/13 00:39:43;;;;;;;11.20;7.83;;;12.40;99.90;;;;;;5015350;28;20049;-85
2022/04/13 00:42:09;;;;;;;8.97;7.17;;;12.40;99.90;;;;;;5005481;28;20041;-86
2022/04/13 00:44:36;;;;;;;11.30;6.77;;;12.40;99.90;;;;;;5018936;28;20044;-85
2022/04/13 00:47:07;;;;;;;11.13;7.10;;;12.40;99.90;;;;;;5037746;28;20052;-84
2022/04/13 00:49:35;;;;;;;11.43;7.38;;;12.40;99.90;;;;;;5052143;28;20060;-84
2022/04/13 00:52:03;;;;;;;11.33;7.27;;;12.40;99.90;;;;;;5034403;28;20088;-84
2022/04/13 00:54:30;;;;;;;10.30;7.73;;;12.30;99.90;;;;;;5037071;28;20060;-84
2022/04/13 00:56:57;;;;;;;10.97;7.90;;;12.30;99.90;;;;;;5017444;28;20135;-84
2022/04/13 00:59:25;;;;;;;8.20;7.10;;;12.30;99.90;;;;;;5018113;28;20071;-84
2022/04/13 01:01:53;;;;;;;10.73;7.10;;;12.30;99.90;;;;;;5062625;28;20052;-84
2022/04/13 01:04:22;;;;;;;9.40;7.60;;;12.20;99.90;;;;;;5040805;28;20058;-83
2022/04/13 01:06:48;;;;;;;11.10;7.53;;;12.20;99.90;;;;;;5035252;28;20040;-83
2022/04/13 01:09:15;;;;;;;10.80;8.00;;;12.20;99.90;;;;;;5021648;28;20044;-83
2022/04/13 01:11:41;;;;;;;8.30;6.93;;;12.20;99.90;;;;;;5018543;28;20041;-82
2022/04/13 01:14:08;;;;;;;8.73;7.50;;;12.20;99.90;;;;;;5024490;28;20056;-83
2022/04/13 01:16:37;;;;;;;9.73;7.53;;;12.10;99.90;;;;;;5017985;28;20049;-83
2022/04/13 01:19:04;;;;;;;9.87;7.30;;;12.10;99.90;;;;;;5030928;28;20059;-82
2022/04/13 01:21:44;;;;;;;13.03;8.17;;;12.10;99.90;;;;;;5034279;28;20063;-83
2022/04/13 01:24:10;;;;;;;11.30;7.80;;;12.10;99.90;;;;;;5036778;28;20368;-83
2022/04/13 01:26:35;;;;;;;13.70;9.43;;;12.00;99.90;;;;;;5033949;28;20094;-83
2022/04/13 01:29:01;;;;;;;12.53;8.57;;;12.10;99.90;;;;;;5036101;28;20041;-84
2022/04/13 01:31:27;;;;;;;10.70;8.53;;;12.10;99.90;;;;;;5017006;28;20060;-83
2022/04/13 01:33:53;;;;;;;11.57;9.47;;;12.10;99.90;;;;;;5016700;28;20045;-83
2022/04/13 01:36:19;;;;;;;11.47;8.90;;;12.10;99.90;;;;;;5019117;28;20045;-83
2022/04/13 01:38:45;;;;;;;12.50;9.83;;;12.20;99.90;;;;;;5002394;28;20043;-83
2022/04/13 01:41:10;;;;;;;9.67;8.00;;;12.10;99.90;;;;;;5050494;28;20041;-82
2022/04/13 01:43:36;;;;;;;11.20;8.70;;;12.10;99.90;;;;;;5014291;28;20128;-83
2022/04/13 01:46:04;;;;;;;11.70;8.50;;;12.10;99.90;;;;;;5033686;28;20048;-83
2022/04/13 01:48:31;;;;;;;10.07;8.97;;;12.10;99.90;;;;;;5050937;28;20048;-83
2022/04/13 01:50:58;;;;;;;13.43;10.10;;;12.00;99.90;;;;;;5068559;28;20095;-84
2022/04/13 01:53:25;;;;;;;13.00;10.43;;;12.00;99.90;;;;;;5033841;28;20072;-83
2022/04/13 01:55:51;;;;;;;12.37;9.40;;;12.00;99.90;;;;;;5015950;28;20230;-84
2022/04/13 01:58:17;;;;;;;13.10;9.63;;;12.00;99.90;;;;;;4999879;28;20860;-84
2022/04/13 02:00:43;;;;;;;13.00;10.47;;;12.00;99.90;;;;;;5037108;28;20052;-83
2022/04/13 02:03:09;;;;;;;12.93;9.87;;;11.90;99.90;;;;;;5017082;28;20033;-83
2022/04/13 02:05:34;;;;;;;11.40;9.17;;;12.00;99.90;;;;;;5017219;28;20186;-83
2022/04/13 02:08:01;;;;;;;12.07;9.27;;;11.90;99.90;;;;;;5017483;28;20787;-83
2022/04/13 02:10:28;;;;;;;10.70;8.90;;;11.80;99.90;;;;;;5017721;28;20041;-83
2022/04/13 02:12:53;;;;;;;12.23;9.40;;;11.80;99.90;;;;;;5019884;28;20060;-83
2022/04/13 02:15:20;;;;;;;13.50;10.47;;;11.70;99.90;;;;;;5004862;28;20033;-83
2022/04/13 02:17:45;;;;;;;15.97;11.10;;;11.70;99.90;;;;;;5020920;28;20043;-83
2022/04/13 02:20:11;;;;;;;17.60;10.90;;;11.70;99.90;;;;;;5026113;28;20052;-83
2022/04/13 02:22:37;;;;;;;14.97;10.70;;;11.70;99.90;;;;;;5036707;28;20068;-83
2022/04/13 02:25:05;;;;;;;14.33;11.20;;;11.70;99.90;;;;;;5036439;28;20037;-91
2022/04/13 02:27:31;;;;;;;15.13;11.50;;;11.70;99.90;;;;;;5038572;28;20040;-84
2022/04/13 02:29:57;;;;;;;17.43;10.77;;;11.70;99.90;;;;;;5039573;28;20106;-84
2022/04/13 02:32:23;;;;;;;17.00;10.50;;;11.70;99.90;;;;;;5038727;28;20041;-84
2022/04/13 02:34:49;;;;;;;14.27;11.10;;;11.60;99.90;;;;;;5055245;28;20105;-85
2022/04/13 02:37:18;;;;;;;19.00;11.60;;;11.60;99.90;;;;;;5043768;28;20540;-83
2022/04/13 02:39:47;;;;;;;13.50;10.40;;;11.60;99.90;;;;;;5004427;28;20072;-84
2022/04/13 02:42:15;;;;;;;13.23;10.77;;;11.60;99.90;;;;;;5040769;28;20048;-84
2022/04/13 02:44:42;;;;;;;14.73;10.90;;;11.60;99.90;;;;;;5025534;28;20045;-84
2022/04/13 02:47:08;;;;;;;15.43;10.93;;;11.60;99.90;;;;;;5019485;28;20087;-84
2022/04/13 02:49:33;;;;;;;16.20;11.10;;;11.50;99.90;;;;;;5037225;28;20044;-83
2022/04/13 02:51:59;;;;;;;13.63;10.80;;;11.40;99.90;;;;;;5025354;28;20033;-86
2022/04/13 02:54:25;;;;;;;15.00;11.20;;;11.40;99.90;;;;;;5004574;28;20045;-85
2022/04/13 02:56:51;;;;;;;16.60;11.13;;;11.40;99.90;;;;;;5004661;28;20051;-84
2022/04/13 02:59:16;;;;;;;13.43;10.43;;;11.30;99.90;;;;;;5022107;28;20048;-85
2022/04/13 03:01:43;;;;;;;14.10;10.57;;;11.30;99.90;;;;;;5019260;28;20057;-86
2022/04/13 03:04:10;;;;;;;16.20;11.67;;;11.20;99.90;;;;;;5003052;28;20036;-85
2022/04/13 03:06:36;;;;;;;11.77;9.47;;;11.10;99.90;;;;;;5019886;28;20064;-85
2022/04/13 03:09:03;;;;;;;13.43;10.30;;;11.20;99.90;;;;;;5041349;28;20060;-85
2022/04/13 03:11:30;;;;;;;18.60;11.20;;;11.10;99.90;;;;;;5024897;28;20044;-85
2022/04/13 03:13:56;;;;;;;12.70;10.67;;;11.10;99.90;;;;;;5034977;28;20036;-85
2022/04/13 03:16:22;;;;;;;14.87;10.53;;;11.10;99.90;;;;;;5035724;28;20160;-85
2022/04/13 03:18:48;;;;;;;16.07;10.40;;;11.10;99.90;;;;;;5036670;28;20040;-85
2022/04/13 03:21:14;;;;;;;15.77;11.07;;;11.10;99.90;;;;;;5018949;28;20137;-86
2022/04/13 03:23:40;;;;;;;12.90;10.57;;;11.00;99.90;;;;;;5021484;28;20044;-85
2022/04/13 03:26:06;;;;;;;18.60;12.57;;;10.90;99.90;;;;;;5036855;28;20113;-86
2022/04/13 03:28:32;;;;;;;16.80;11.30;;;10.90;99.90;;;;;;5010984;28;20051;-86
2022/04/13 03:30:58;;;;;;;14.20;11.33;;;10.90;99.90;;;;;;5034571;28;20045;-85
2022/04/13 03:33:23;;;;;;;15.27;10.87;;;10.90;99.90;;;;;;5007547;28;20052;-85
2022/04/13 03:35:49;;;;;;;15.40;10.80;;;10.90;99.90;;;;;;5017531;28;20044;-85
2022/04/13 03:38:15;;;;;;;13.87;10.93;;;10.90;99.90;;;;;;5019321;28;20041;-85
2022/04/13 03:40:41;;;;;;;14.83;10.87;;;10.80;99.90;;;;;;5019473;28;20182;-85
2022/04/13 03:43:07;;;;;;;15.03;10.87;;;10.80;99.90;;;;;;5036314;28;20099;-85
2022/04/13 03:45:32;;;;;;;12.73;10.10;;;10.80;99.90;;;;;;5003292;28;20105;-85
2022/04/13 03:47:58;;;;;;;14.47;11.90;;;10.70;99.90;;;;;;5009846;28;20041;-85
2022/04/13 03:50:24;;;;;;;15.67;10.33;;;10.80;99.90;;;;;;5025046;28;20135;-85
2022/04/13 03:52:50;;;;;;;15.70;11.17;;;10.80;99.90;;;;;;5002435;28;20041;-85
2022/04/13 03:55:19;;;;;;;15.43;10.70;;;10.80;99.90;;;;;;5035710;28;20585;-85
2022/04/13 03:57:44;;;;;;;15.50;10.97;;;10.80;99.90;;;;;;5035690;28;20044;-85
2022/04/13 04:00:11;;;;;;;17.13;10.40;;;10.90;99.90;;;;;;5019560;28;20079;-87
2022/04/13 04:02:38;;;;;;;16.43;11.27;;;11.00;99.90;;;;;;5006426;28;20049;-86
2022/04/13 04:05:04;;;;;;;14.30;11.40;;;11.00;99.90;;;;;;5019203;28;20040;-86
2022/04/13 04:07:30;;;;;;;15.77;10.93;;;11.00;99.90;;;;;;5036367;28;20033;-85
2022/04/13 04:09:56;;;;;;;18.40;12.43;;;11.00;99.90;;;;;;5036163;28;20067;-87
2022/04/13 04:12:21;;;;;;;17.17;11.93;;;11.00;99.90;;;;;;5034874;28;20099;-86
2022/04/13 04:14:47;;;;;;;18.20;12.30;;;11.10;99.90;;;;;;5038704;28;20795;-87
2022/04/13 04:17:13;;;;;;;19.13;12.57;;;11.10;99.90;;;;;;5033802;28;20083;-87
2022/04/13 04:19:39;;;;;;;19.13;12.83;;;11.10;99.90;;;;;;5037093;28;20036;-86
2022/04/13 04:22:05;;;;;;;23.10;12.83;;;11.20;99.90;;;;;;5019057;28;20041;-86
2022/04/13 04:24:31;;;;;;;23.90;13.53;;;11.20;99.90;;;;;;5007307;28;20076;-85
2022/04/13 04:26:57;;;;;;;22.17;12.87;;;11.30;99.90;;;;;;5019783;28;20040;-86
2022/04/13 04:29:24;;;;;;;19.77;13.60;;;11.30;99.90;;;;;;5035715;28;20036;-86
2022/04/13 04:31:50;;;;;;;19.97;13.27;;;11.30;99.90;;;;;;5033963;28;20099;-86
2022/04/13 04:34:17;;;;;;;17.23;14.07;;;11.30;99.90;;;;;;5039769;28;20298;-86
2022/04/13 04:36:44;;;;;;;20.30;14.10;;;11.30;99.90;;;;;;5036445;28;20044;-86
2022/04/13 04:39:10;;;;;;;20.90;13.73;;;11.30;99.90;;;;;;5034454;28;20056;-86
2022/04/13 04:41:36;;;;;;;19.93;13.90;;;11.30;99.90;;;;;;5036301;28;20046;-86
2022/04/13 04:44:02;;;;;;;20.07;13.60;;;11.30;99.90;;;;;;5019132;28;20076;-85
2022/04/13 04:46:28;;;;;;;18.97;12.70;;;11.30;99.90;;;;;;4999770;28;20040;-85
2022/04/13 04:48:54;;;;;;;21.47;13.30;;;11.20;99.90;;;;;;5038029;28;20041;-87
2022/04/13 04:51:20;;;;;;;21.47;13.87;;;11.20;99.90;;;;;;5037913;28;20048;-79
2022/04/13 04:53:47;;;;;;;20.50;14.03;;;11.20;99.90;;;;;;5052070;28;20045;-86
2022/04/13 04:56:16;;;;;;;22.67;14.60;;;11.20;99.90;;;;;;5034158;28;20056;-85
2022/04/13 04:58:42;;;;;;;20.93;14.97;;;11.10;99.90;;;;;;5030781;28;20044;-85
2022/04/13 05:01:09;;;;;;;18.00;14.53;;;11.10;99.90;;;;;;5035836;28;20055;-84
2022/04/13 05:03:35;;;;;;;20.53;14.87;;;11.00;99.90;;;;;;5036426;28;20041;-85
2022/04/13 05:06:01;;;;;;;22.93;14.47;;;11.00;99.90;;;;;;5000506;28;20056;-86
2022/04/13 05:08:27;;;;;;;28.33;16.00;;;11.00;99.90;;;;;;5036546;28;20032;-85
2022/04/13 05:10:52;;;;;;;21.83;15.30;;;11.00;99.90;;;;;;5000999;28;20059;-83
2022/04/13 05:13:19;;;;;;;26.33;15.60;;;11.00;99.90;;;;;;5003092;28;20084;-86
2022/04/13 05:15:45;;;;;;;26.50;15.13;;;11.00;99.90;;;;;;5036090;28;20067;-86
2022/04/13 05:18:12;;;;;;;20.53;14.90;;;11.00;99.90;;;;;;5042410;28;20125;-84
2022/04/13 05:20:39;;;;;;;21.53;15.83;;;11.00;99.90;;;;;;5043064;28;20086;-85
2022/04/13 05:23:05;;;;;;;27.37;17.43;;;11.10;99.90;;;;;;5030799;28;20048;-85
2022/04/13 05:25:31;;;;;;;26.13;17.23;;;11.00;99.90;;;;;;5010171;28;20048;-85
2022/04/13 05:27:57;;;;;;;25.57;16.00;;;11.10;99.90;;;;;;5025582;28;20190;-84
2022/04/13 05:30:23;;;;;;;23.00;16.17;;;11.10;99.90;;;;;;5022503;28;20068;-84
2022/04/13 05:32:51;;;;;;;25.37;15.90;;;11.10;99.90;;;;;;5033232;28;20071;-86
2022/04/13 05:35:17;;;;;;;22.53;15.13;;;11.20;99.90;;;;;;5041595;28;20040;-87
2022/04/13 05:37:43;;;;;;;24.40;15.77;;;11.30;99.90;;;;;;5043718;28;20043;-90
2022/04/13 05:40:10;;;;;;;25.43;16.03;;;11.30;99.90;;;;;;5000082;28;20091;-88
2022/04/13 05:42:36;;;;;;;22.73;16.87;;;11.40;99.90;;;;;;5039161;28;20048;-91
2022/04/13 05:45:02;;;;;;;22.93;15.67;;;11.40;99.90;;;;;;5028663;28;20055;-90
2022/04/13 05:47:29;;;;;;;25.23;16.33;;;11.40;99.90;;;;;;5033539;28;20064;-92
2022/04/13 05:49:55;;;;;;;26.10;16.17;;;11.50;99.90;;;;;;5057912;28;20048;-91
2022/04/13 05:52:20;;;;;;;24.13;16.63;;;11.50;99.90;;;;;;5042180;28;20123;-89
2022/04/13 05:54:46;;;;;;;24.17;16.07;;;11.50;99.90;;;;;;5026017;28;20071;-90
2022/04/13 05:57:12;;;;;;;23.53;15.83;;;11.60;99.90;;;;;;5008833;28;20056;-90
2022/04/13 05:59:38;;;;;;;23.70;16.20;;;11.60;99.90;;;;;;5001793;28;20052;-89
2022/04/13 06:02:04;;;;;;;27.23;17.07;;;11.60;99.90;;;;;;5035849;28;20048;-91
2022/04/13 06:04:30;;;;;;;27.83;16.60;;;11.60;99.90;;;;;;5006129;28;20049;-90
2022/04/13 06:06:56;;;;;;;26.03;16.83;;;11.60;99.90;;;;;;5051359;28;20029;-90
2022/04/13 06:09:22;;;;;;;25.30;16.70;;;11.60;99.90;;;;;;5016293;28;20045;-93
2022/04/13 06:11:51;;;;;;;25.33;16.43;;;11.60;99.90;;;;;;5027681;28;20075;-89
2022/04/13 06:14:17;;;;;;;25.00;16.63;;;11.60;99.90;;;;;;5031489;28;20326;-86
2022/04/13 06:16:43;;;;;;;29.93;16.93;;;11.60;99.90;;;;;;5022213;28;20457;-83
2022/04/13 06:19:09;;;;;;;27.33;18.10;;;11.60;99.90;;;;;;5021059;28;20049;-82
2022/04/13 06:21:35;;;;;;;22.90;16.93;;;11.70;99.90;;;;;;5054432;28;20609;-83
2022/04/13 06:24:01;;;;;;;25.47;17.67;;;11.70;99.90;;;;;;5007894;28;20048;-83
2022/04/13 06:26:27;;;;;;;28.50;18.10;;;11.80;99.90;;;;;;5066975;28;20616;-83
2022/04/13 06:28:53;;;;;;;28.93;16.93;;;11.80;99.90;;;;;;5014864;28;20053;-83
2022/04/13 06:31:19;;;;;;;26.20;18.97;;;11.90;99.90;;;;;;5050329;28;20060;-83
2022/04/13 06:33:45;;;;;;;28.23;19.20;;;12.00;99.90;;;;;;5058296;28;20036;-83
2022/04/13 06:36:11;;;;;;;30.80;17.83;;;12.10;99.90;;;;;;5023833;28;20052;-83
2022/04/13 06:38:40;;;;;;;28.67;19.73;;;12.30;99.90;;;;;;5054059;28;20052;-82
2022/04/13 06:41:07;;;;;;;31.60;20.10;;;12.40;99.90;;;;;;5023173;28;20071;-83
2022/04/13 06:43:33;;;;;;;30.77;19.47;;;12.60;99.90;;;;;;5019591;28;20041;-83
2022/04/13 06:45:59;;;;;;;28.37;18.47;;;12.70;99.90;;;;;;5007913;28;20049;-87
2022/04/13 06:48:24;;;;;;;25.23;17.33;;;12.90;99.90;;;;;;5023493;28;20418;-83
2022/04/13 06:50:50;;;;;;;31.87;18.77;;;13.00;99.90;;;;;;5023985;28;20083;-84
2022/04/13 06:53:17;;;;;;;28.43;17.63;;;13.20;99.90;;;;;;5023149;28;20041;-83
2022/04/13 06:55:47;;;;;;;31.87;18.97;;;13.30;99.90;;;;;;5023387;28;20065;-83
2022/04/13 06:58:15;;;;;;;32.87;18.63;;;13.40;99.90;;;;;;5024533;28;20048;-83
2022/04/13 07:00:40;;;;;;;28.60;17.57;;;13.50;99.90;;;;;;5025600;28;20052;-83
2022/04/13 07:03:06;;;;;;;30.90;15.97;;;13.70;99.90;;;;;;5044690;28;20490;-83
2022/04/13 07:05:33;;;;;;;28.23;17.47;;;13.70;99.90;;;;;;5023440;28;20108;-83
2022/04/13 07:08:00;;;;;;;27.27;15.80;;;13.80;99.90;;;;;;5040718;28;20052;-83
2022/04/13 07:10:27;;;;;;;24.70;16.30;;;13.80;99.90;;;;;;5041918;28;20071;-82
2022/04/13 07:12:53;;;;;;;24.20;14.77;;;13.90;99.90;;;;;;5036539;28;20076;-83
2022/04/13 07:15:19;;;;;;;24.80;14.40;;;13.90;99.90;;;;;;5034532;28;20487;-83
2022/04/13 07:17:46;;;;;;;24.83;15.23;;;13.90;99.90;;;;;;5043129;28;20089;-83
2022/04/13 07:20:13;;;;;;;24.93;14.67;;;13.90;99.90;;;;;;5031673;28;20063;-83
2022/04/13 07:22:44;;;;;;;22.63;15.47;;;14.00;99.90;;;;;;5026675;28;20135;-83
2022/04/13 07:25:09;;;;;;;22.80;15.00;;;14.10;99.90;;;;;;5011477;28;20400;-83
2022/04/13 07:27:35;;;;;;;22.60;14.90;;;14.30;99.90;;;;;;5010020;28;20028;-83
2022/04/13 07:30:01;;;;;;;24.73;14.50;;;14.40;99.90;;;;;;5028429;28;20044;-83
2022/04/13 07:32:26;;;;;;;20.77;13.67;;;14.40;99.90;;;;;;5030104;28;20079;-83
2022/04/13 07:34:52;;;;;;;24.00;14.33;;;14.50;99.90;;;;;;5022213;28;20040;-83
2022/04/13 07:37:18;;;;;;;22.63;14.10;;;14.60;99.90;;;;;;5015943;28;20156;-83
2022/04/13 07:39:43;;;;;;;23.37;14.83;;;14.70;99.90;;;;;;5057143;28;20045;-83
2022/04/13 07:42:09;;;;;;;20.80;13.33;;;14.80;99.90;;;;;;5027075;28;20047;-83
2022/04/13 07:44:35;;;;;;;20.37;13.23;;;14.90;99.90;;;;;;5009448;28;20476;-83
2022/04/13 07:47:01;;;;;;;15.00;11.97;;;15.10;99.90;;;;;;5010908;28;20040;-83
2022/04/13 07:49:26;;;;;;;16.60;11.40;;;15.20;99.90;;;;;;5012723;28;20067;-83
2022/04/13 07:51:52;;;;;;;19.67;12.67;;;15.30;99.90;;;;;;5023709;28;20041;-83
2022/04/13 07:54:18;;;;;;;22.73;12.90;;;15.40;99.90;;;;;;5043786;28;20060;-83
2022/04/13 07:56:43;;;;;;;21.33;11.27;;;15.40;99.90;;;;;;5042734;28;20530;-84
2022/04/13 07:59:09;;;;;;;17.93;11.20;;;15.40;99.90;;;;;;5060135;28;20059;-84
2022/04/13 08:01:35;;;;;;;20.53;11.67;;;15.40;99.90;;;;;;5026239;28;20403;-83
2022/04/13 08:04:00;;;;;;;20.43;11.70;;;15.50;99.90;;;;;;5043349;28;20140;-83
2022/04/13 08:06:26;;;;;;;18.55;11.32;;;15.50;99.90;;;;;;5026732;28;20101;-83
2022/04/13 08:08:52;;;;;;;15.90;11.17;;;15.50;99.90;;;;;;5042690;28;20129;-83
2022/04/13 08:11:18;;;;;;;18.07;11.70;;;15.50;99.90;;;;;;5010522;28;20070;-83
2022/04/13 08:13:44;;;;;;;17.90;11.67;;;15.40;99.90;;;;;;5042432;28;20056;-83
2022/04/13 08:16:10;;;;;;;19.87;12.47;;;15.40;99.90;;;;;;5027399;28;20052;-83
2022/04/13 08:18:35;;;;;;;17.73;11.63;;;15.30;99.90;;;;;;5059466;28;20215;-83
2022/04/13 08:21:02;;;;;;;22.70;13.50;;;15.40;99.90;;;;;;5010492;28;20040;-83
2022/04/13 08:23:28;;;;;;;18.00;12.45;;;15.40;99.90;;;;;;5031970;28;20041;-83
2022/04/13 08:25:54;;;;;;;21.37;12.93;;;15.40;99.90;;;;;;5018578;28;20083;-83
2022/04/13 08:28:20;;;;;;;17.80;11.20;;;15.50;99.90;;;;;;5040671;28;20052;-83
2022/04/13 08:30:45;;;;;;;19.15;12.23;;;15.50;99.90;;;;;;5042425;28;20052;-83
2022/04/13 08:33:11;;;;;;;19.75;11.70;;;15.50;99.90;;;;;;5042875;28;20049;-83
2022/04/13 08:35:37;;;;;;;17.87;11.50;;;15.50;99.90;;;;;;5024561;28;20060;-83
2022/04/13 08:38:02;;;;;;;17.75;11.38;;;15.50;99.90;;;;;;5026589;28;20059;-83
2022/04/13 08:40:35;;;;;;;20.52;11.77;;;15.50;99.90;;;;;;5042123;28;20136;-83
2022/04/13 08:43:09;;;;;;;19.05;10.45;;;15.50;99.90;;;;;;5042678;28;20033;-84
2022/04/13 08:45:42;;;;;;;17.27;10.20;;;15.50;99.90;;;;;;5042605;28;20048;-83
2022/04/13 08:48:11;;;;;;;15.67;11.40;;;15.50;99.90;;;;;;5041694;28;20040;-83
2022/04/13 08:50:37;;;;;;;16.30;11.10;;;15.50;99.90;;;;;;5026317;28;20051;-83
2022/04/13 08:53:12;;;;;;;18.50;10.70;;;15.50;99.90;;;;;;5042503;28;20040;-83
2022/04/13 08:55:45;;;;;;;19.17;10.82;;;15.70;99.90;;;;;;5042115;28;21742;-84
2022/04/13 08:58:24;;;;;;;16.98;11.40;;;15.80;99.90;;;;;;5042382;28;20527;-83
2022/04/13 09:00:53;;;;;;;17.15;11.68;;;16.00;99.90;;;;;;5047616;28;20076;-84
2022/04/13 09:03:36;;;;;;;17.20;11.50;;;16.00;99.90;;;;;;5040817;28;20048;-84
2022/04/13 09:06:04;;;;;;;14.55;10.95;;;16.10;99.90;;;;;;5041647;28;20052;-83
2022/04/13 09:08:44;;;;;;;21.17;11.23;;;16.20;99.90;;;;;;5026082;28;20059;-83
2022/04/13 09:11:12;;;;;;;16.00;11.48;;;16.40;99.90;;;;;;5042537;28;20052;-84
2022/04/13 09:13:38;;;;;;;17.08;11.95;;;16.50;99.90;;;;;;5040192;28;20051;-83
2022/04/13 09:16:05;;;;;;;17.35;11.70;;;16.60;99.90;;;;;;5026458;28;20088;-84
2022/04/13 09:18:30;;;;;;;15.88;11.45;;;16.60;99.90;;;;;;5024900;28;20032;-83
2022/04/13 09:20:58;;;;;;;15.23;10.32;;;16.70;99.90;;;;;;5026226;28;20051;-83
2022/04/13 09:23:25;;;;;;;17.42;11.57;;;16.90;99.90;;;;;;5041147;28;20047;-83
2022/04/13 09:25:54;;;;;;;17.13;9.50;;;17.00;99.90;;;;;;5025573;28;20051;-83
2022/04/13 09:28:20;;;;;;;15.20;9.85;;;17.10;99.90;;;;;;5038970;28;20044;-83
2022/04/13 09:30:46;;;;;;;12.20;8.18;;;17.20;99.90;;;;;;5040361;28;20609;-80
2022/04/13 09:33:12;;;;;;;11.93;7.60;;;17.20;99.90;;;;;;5025441;28;20087;-84
2022/04/13 09:35:38;;;;;;;13.88;7.93;;;17.40;99.90;;;;;;5056435;28;20052;-82
2022/04/13 09:38:05;;;;;;;12.15;7.03;;;17.40;99.90;;;;;;5041758;28;20055;-83
2022/04/13 09:40:35;;;;;;;11.75;6.30;;;17.50;99.90;;;;;;5021010;28;20044;-83
2022/04/13 09:43:09;;;;;;;14.57;6.95;;;17.70;99.90;;;;;;5057847;28;20056;-84
2022/04/13 09:45:42;;;;;;;11.48;6.57;;;17.70;99.90;;;;;;5057969;28;20056;-83
2022/04/13 09:48:13;;;;;;;10.15;6.63;;;17.80;99.90;;;;;;5056979;28;20178;-84
2022/04/13 09:50:40;;;;;;;11.67;7.90;;;17.90;99.90;;;;;;5025941;28;20521;-83
2022/04/13 09:53:08;;;;;;;12.25;7.03;;;18.10;99.90;;;;;;5041101;28;20146;-85
2022/04/13 09:55:42;;;;;;;9.15;6.50;;;18.30;99.90;;;;;;5041370;28;20132;-84
2022/04/13 09:58:13;;;;;;;7.82;6.35;;;18.40;99.90;;;;;;5012975;28;20092;-84
2022/04/13 10:00:40;;;;;;;10.68;7.15;;;18.50;99.90;;;;;;5056661;28;20044;-83
2022/04/13 10:03:17;;;;;;;8.50;6.65;;;18.50;99.90;;;;;;5032406;28;20079;-83
2022/04/13 10:05:54;;;;;;;10.98;6.82;;;18.70;99.90;;;;;;5018293;28;20052;-84
2022/04/13 10:08:25;;;;;;;11.95;6.10;;;18.80;99.90;;;;;;5022474;28;20060;-84
2022/04/13 10:10:56;;;;;;;10.65;6.47;;;18.80;99.90;;;;;;5041175;28;20498;-84
2022/04/13 10:13:41;;;;;;;9.75;5.47;;;18.90;99.90;;;;;;5038491;28;20049;-84
2022/04/13 10:16:08;;;;;;;8.40;6.20;;;18.90;99.90;;;;;;5065750;28;20051;-84
2022/04/13 10:18:58;;;;;;;8.60;5.38;;;18.90;99.90;;;;;;5039768;28;20535;-84
2022/04/13 10:21:46;;;;;;;12.27;5.88;;;19.10;99.90;;;;;;5021058;28;20069;-87
2022/04/13 10:24:21;;;;;;;10.15;6.10;;;19.10;99.90;;;;;;5057827;28;20040;-87
2022/04/13 10:27:03;;;;;;;12.32;6.00;;;19.10;99.90;;;;;;5040825;28;20480;-87
2022/04/13 10:29:34;;;;;;;8.15;5.70;;;19.20;99.90;;;;;;5057732;28;20052;-83
2022/04/13 10:32:06;;;;;;;7.80;5.68;;;19.20;99.90;;;;;;5030321;28;20094;-87
2022/04/13 10:34:38;;;;;;;8.52;5.35;;;19.40;99.90;;;;;;5024666;28;20048;-87
2022/04/13 10:37:09;;;;;;;8.15;5.68;;;19.40;99.90;;;;;;5077779;28;20056;-86
2022/04/13 10:39:35;;;;;;;9.10;5.45;;;19.40;99.90;;;;;;5046686;28;20044;-87
2022/04/13 10:42:08;;;;;;;9.40;5.63;;;19.30;99.90;;;;;;5029121;28;20078;-86
2022/04/13 10:44:46;;;;;;;9.73;5.75;;;19.20;99.90;;;;;;5040272;28;20082;-87
2022/04/13 10:47:17;;;;;;;9.25;5.25;;;19.10;99.90;;;;;;5039153;28;20053;-87
2022/04/13 10:49:46;;;;;;;8.50;5.28;;;19.10;99.90;;;;;;5057361;28;20059;-83
2022/04/13 10:52:21;;;;;;;8.45;6.00;;;19.30;99.90;;;;;;5061253;28;20468;-82
2022/04/13 10:54:53;;;;;;;10.98;5.85;;;19.40;99.90;;;;;;5050153;28;20052;-85
2022/04/13 10:57:21;;;;;;;8.70;5.03;;;19.60;99.90;;;;;;5037720;28;20052;-84
2022/04/13 10:59:54;;;;;;;6.82;4.97;;;19.70;99.90;;;;;;5060315;28;20078;-83
2022/04/13 11:02:24;;;;;;;5.97;4.38;;;19.70;99.90;;;;;;5076766;28;20098;-85
2022/04/13 11:04:52;;;;;;;7.85;4.25;;;19.60;99.90;;;;;;5041767;28;20866;-86
2022/04/13 11:07:18;;;;;;;8.93;4.10;;;19.60;99.90;;;;;;5037455;28;20117;-86
2022/04/13 11:09:46;;;;;;;8.45;4.70;;;19.50;99.90;;;;;;5020626;28;20190;-86
2022/04/13 11:12:12;;;;;;;8.68;5.30;;;19.50;99.90;;;;;;5053802;28;20055;-85
2022/04/13 11:14:55;;;;;;;6.38;4.72;;;19.60;99.90;;;;;;5020480;28;20106;-86
2022/04/13 11:17:25;;;;;;;6.88;4.80;;;19.50;99.90;;;;;;5048490;28;20127;-87
2022/04/13 11:19:51;;;;;;;6.57;4.75;;;19.40;99.90;;;;;;5041576;28;20074;-87
2022/04/13 11:22:19;;;;;;;5.82;4.85;;;19.30;99.90;;;;;;5044909;28;20064;-87
2022/04/13 11:24:48;;;;;;;7.75;5.57;;;19.20;99.90;;;;;;5055176;28;20043;-86
2022/04/13 11:27:14;;;;;;;7.40;4.90;;;19.20;99.90;;;;;;5056890;28;20051;-86
2022/04/13 11:29:45;;;;;;;6.68;4.50;;;19.20;99.90;;;;;;5043087;28;20607;-87
2022/04/13 11:32:15;;;;;;;7.32;5.00;;;19.10;99.90;;;;;;5023911;28;20052;-86
2022/04/13 11:34:57;;;;;;;9.07;5.07;;;19.10;99.90;;;;;;5043043;28;20048;-86
2022/04/13 11:37:34;;;;;;;8.95;5.53;;;19.00;99.90;;;;;;5059365;28;20037;-87
2022/04/13 11:40:03;;;;;;;6.05;5.38;;;18.90;99.90;;;;;;5051434;28;20052;-87
2022/04/13 11:42:35;;;;;;;7.35;5.50;;;18.90;99.90;;;;;;5040300;28;20036;-87
2022/04/13 11:45:05;;;;;;;8.70;5.40;;;18.90;99.90;;;;;;5041323;28;20993;-87
2022/04/13 11:47:43;;;;;;;7.43;4.90;;;19.00;99.90;;;;;;5025610;28;20044;-82
2022/04/13 11:50:12;;;;;;;5.72;4.20;;;19.00;99.90;;;;;;5038407;28;20053;-85
2022/04/13 11:52:42;;;;;;;6.35;4.60;;;19.00;99.90;;;;;;5041376;28;20091;-85
2022/04/13 11:55:37;;;;;;;5.75;3.58;;;19.00;99.90;;;;;;5016509;28;20081;-85
2022/04/13 11:58:09;;;;;;;5.30;3.35;;;19.00;99.90;;;;;;5037806;28;20076;-85
2022/04/13 12:00:43;;;;;;;4.38;2.70;;;18.90;99.90;;;;;;5022412;28;20077;-85
2022/04/13 12:03:15;;;;;;;6.78;4.10;;;18.80;99.90;;;;;;5005688;28;20033;-84
2022/04/13 12:06:03;;;;;;;7.68;3.90;;;18.70;99.90;;;;;;5021875;28;20424;-84
2022/04/13 12:08:35;;;;;;;7.75;4.47;;;18.60;99.90;;;;;;5054790;28;20052;-84
2022/04/13 12:11:01;;;;;;;6.85;3.90;;;18.40;99.90;;;;;;5038515;28;20049;-85
2022/04/13 12:13:32;;;;;;;6.60;3.83;;;18.50;99.90;;;;;;5022435;28;20486;-84
2022/04/13 12:16:00;;;;;;;5.25;2.05;;;18.70;99.90;;;;;;5021500;28;20102;-85
2022/04/13 12:18:27;;;;;;;2.85;1.52;;;18.80;99.90;;;;;;5022827;28;20075;-85
2022/04/13 12:21:06;;;;;;;2.55;1.60;;;19.00;99.90;;;;;;5006560;28;20049;-85
2022/04/13 12:23:35;;;;;;;3.97;2.10;;;19.00;99.90;;;;;;5035840;28;20052;-85
2022/04/13 12:26:01;;;;;;;5.88;3.00;;;19.00;99.90;;;;;;5020600;28;20077;-85
2022/04/13 12:28:26;;;;;;;4.90;2.60;;;19.10;99.90;;;;;;5003965;28;20038;-85
2022/04/13 12:31:00;;;;;;;4.72;2.75;;;19.00;99.90;;;;;;5004255;28;20053;-85
2022/04/13 12:33:27;;;;;;;7.15;3.05;;;19.00;98.70;;;;;;5040363;28;20060;-85
2022/04/13 12:36:06;;;;;;;7.57;3.28;;;18.90;99.90;;;;;;5035182;28;20408;-84